This is the latest recevied weather packets stored in our database for station/object N2RDT. If no packets are shown the sender has not sent any weather packets the latest 10 day(s).
| Time | Temp. | Humidity | Pressure | Rain* | Wind** | Luminosity | Snow |
|---|---|---|---|---|---|---|---|
| 1777672089 | 13.33° C | 74% | 1013.8 hPa | 0 mm | - | 234 W/m² | - |
| 1777671785 | 12.78° C | 74% | 1013.8 hPa | 0 mm | - | 115 W/m² | - |
| 1777671481 | 12.78° C | 72% | 1013.8 hPa | 0 mm | - | 226 W/m² | - |
| 1777671177 | 12.78° C | 72% | 1013.7 hPa | 0 mm | - | 249 W/m² | - |
| 1777670874 | 12.78° C | 74% | 1013.6 hPa | 0 mm | - | 168 W/m² | - |
| 1777670570 | 12.22° C | 74% | 1013.6 hPa | 0 mm | - | 279 W/m² | - |
| 1777670268 | 12.22° C | 76% | 1013.8 hPa | 0 mm | - | 149 W/m² | - |
| 1777669964 | 12.22° C | 76% | 1013.9 hPa | 0 mm | - | 104 W/m² | - |
| 1777669661 | 12.22° C | 77% | 1013.9 hPa | 0 mm | - | 93 W/m² | - |
| 1777669358 | 11.67° C | 79% | 1013.8 hPa | 0 mm | - | 186 W/m² | - |
| 1777669054 | 11.67° C | 77% | 1013.9 hPa | 0 mm | - | 97 W/m² | - |
| 1777668751 | 11.67° C | 77% | 1013.8 hPa | 0 mm | - | 98 W/m² | - |
| 1777668449 | 11.67° C | 77% | 1013.7 hPa | 0 mm | - | 83 W/m² | - |
| 1777668146 | 12.22° C | 75% | 1013.9 hPa | 0 mm | - | 91 W/m² | - |
| 1777667841 | 12.78° C | 73% | 1013.8 hPa | 0 mm | - | 48 W/m² | - |
| 1777667539 | 13.33° C | 70% | 1013.7 hPa | 0 mm | - | 42 W/m² | - |
| 1777667236 | 13.89° C | 64% | 1013.7 hPa | 0 mm | - | 44 W/m² | - |
| 1777666933 | 14.44° C | 60% | 1013.7 hPa | 0 mm | - | 73 W/m² | - |
| 1777666629 | 15° C | 57% | 1013.7 hPa | 0 mm | - | 87 W/m² | - |
| 1777666326 | 15.56° C | 55% | 1013.9 hPa | 0 mm | - | 134 W/m² | - |
| 1777666023 | 16.11° C | 52% | 1013.9 hPa | 0 mm | - | 258 W/m² | - |
| 1777665720 | 15.56° C | 54% | 1014.2 hPa | 0 mm | - | 420 W/m² | - |
| 1777665418 | 16.11° C | 52% | 1014 hPa | 0 mm | - | 143 W/m² | - |
| 1777665113 | 17.22° C | 52% | 1014.1 hPa | 0 mm | - | 234 W/m² | - |
| 1777664809 | 17.22° C | 51% | 1013.9 hPa | 0 mm | - | 209 W/m² | - |
* Rain latest hour (hover to see other rain measurements)
** Current wind speed in m/s (hover to see current wind gust speed)